createdAt,value
2022-08-16T00:01:26.613Z,21.10
2022-08-16T00:04:01.318Z,21.10
2022-08-16T00:06:33.135Z,21.00
2022-08-16T00:09:00.621Z,21.00
2022-08-16T00:11:28.393Z,21.00
2022-08-16T00:13:56.008Z,21.00
2022-08-16T00:17:00.617Z,20.90
2022-08-16T00:19:40.987Z,20.90
2022-08-16T00:22:12.967Z,20.90
2022-08-16T00:24:46.759Z,20.80
2022-08-16T00:27:15.695Z,20.80
2022-08-16T00:29:45.924Z,20.80
2022-08-16T00:32:18.121Z,20.80
2022-08-16T00:34:53.090Z,20.80
2022-08-16T00:37:57.056Z,20.90
2022-08-16T00:40:43.718Z,20.90
2022-08-16T00:43:42.630Z,21.00
2022-08-16T00:46:52.931Z,21.00
2022-08-16T00:49:26.520Z,21.00
2022-08-16T00:51:55.672Z,21.00
2022-08-16T00:54:32.940Z,21.00
2022-08-16T00:57:03.818Z,21.10
2022-08-16T00:59:42.444Z,21.20
2022-08-16T01:02:31.330Z,21.20
2022-08-16T01:05:10.681Z,21.20
2022-08-16T01:07:51.338Z,21.20
2022-08-16T01:10:31.955Z,21.20
2022-08-16T01:13:21.985Z,21.20
2022-08-16T01:16:19.884Z,21.30
2022-08-16T01:19:29.304Z,21.30
2022-08-16T01:22:49.965Z,21.30
2022-08-16T01:25:36.297Z,21.30
2022-08-16T01:28:20.093Z,21.30
2022-08-16T01:30:56.806Z,21.30
2022-08-16T01:33:33.439Z,21.30
2022-08-16T01:36:12.353Z,21.30
2022-08-16T01:38:53.172Z,21.20
2022-08-16T01:41:31.384Z,21.10
2022-08-16T01:44:01.217Z,21.00
2022-08-16T01:46:46.814Z,21.00
2022-08-16T01:50:40.743Z,20.90
2022-08-16T01:52:29.476Z,20.90
2022-08-16T01:54:59.626Z,20.90
2022-08-16T01:57:31.638Z,20.90
2022-08-16T02:00:01.193Z,20.90
2022-08-16T02:02:30.059Z,20.90
2022-08-16T02:05:00.328Z,20.90
2022-08-16T02:07:28.566Z,20.90
2022-08-16T02:09:59.595Z,20.90
2022-08-16T02:12:51.726Z,20.90
2022-08-16T02:15:27.226Z,20.80
2022-08-16T02:18:01.155Z,20.80
2022-08-16T02:20:36.309Z,20.80
2022-08-16T02:23:08.649Z,20.70
2022-08-16T02:25:52.530Z,20.70
2022-08-16T02:28:24.963Z,20.70
2022-08-16T02:30:59.606Z,20.70
2022-08-16T02:33:43.775Z,20.70
2022-08-16T02:36:48.110Z,20.70
2022-08-16T02:39:08.698Z,20.60
2022-08-16T02:41:40.732Z,20.60
2022-08-16T02:44:13.839Z,20.50
2022-08-16T02:46:50.425Z,20.40
2022-08-16T02:49:20.641Z,20.30
2022-08-16T02:51:48.289Z,20.20
2022-08-16T02:54:18.170Z,20.20
2022-08-16T02:56:47.836Z,20.10
2022-08-16T02:59:15.846Z,20.10
2022-08-16T03:01:43.989Z,20.00
2022-08-16T03:04:28.941Z,19.90
2022-08-16T03:06:59.837Z,19.90
2022-08-16T03:09:28.786Z,19.80
2022-08-16T03:11:58.142Z,19.70
2022-08-16T03:14:26.746Z,19.60
2022-08-16T03:16:59.914Z,19.50
2022-08-16T03:19:47.333Z,19.40
2022-08-16T03:22:28.210Z,19.30
2022-08-16T03:25:07.655Z,19.30
2022-08-16T03:27:39.078Z,19.20
2022-08-16T03:30:20.893Z,19.10
2022-08-16T03:32:51.342Z,19.00
2022-08-16T03:35:33.003Z,19.00
2022-08-16T03:38:34.309Z,19.00
2022-08-16T03:40:58.802Z,19.00
2022-08-16T03:43:51.197Z,19.10
2022-08-16T03:46:48.162Z,19.10
2022-08-16T03:49:10.866Z,19.00
2022-08-16T03:51:43.793Z,19.00
2022-08-16T03:54:12.516Z,19.00
2022-08-16T03:56:56.892Z,19.00
2022-08-16T03:59:29.719Z,18.90
2022-08-16T04:02:01.418Z,19.00
2022-08-16T04:04:33.036Z,19.00
2022-08-16T04:07:07.287Z,19.00
2022-08-16T04:09:37.848Z,18.90
2022-08-16T04:12:11.046Z,18.90
2022-08-16T04:14:46.727Z,18.90
2022-08-16T04:17:17.429Z,18.90
2022-08-16T04:19:45.675Z,18.90
2022-08-16T04:22:17.185Z,18.90
2022-08-16T04:24:54.041Z,18.90
2022-08-16T04:27:22.418Z,18.90
2022-08-16T04:29:52.573Z,18.90
2022-08-16T04:32:20.858Z,18.90
2022-08-16T04:34:48.942Z,18.90
2022-08-16T04:37:16.476Z,18.90
2022-08-16T04:39:46.830Z,18.90
2022-08-16T04:42:26.142Z,18.90
2022-08-16T04:44:56.211Z,18.90
2022-08-16T04:47:35.786Z,19.00
2022-08-16T04:50:19.326Z,19.10
2022-08-16T04:52:51.005Z,19.10
2022-08-16T04:55:37.631Z,19.20
2022-08-16T04:58:38.453Z,19.20
2022-08-16T05:00:56.412Z,19.20
2022-08-16T05:03:26.131Z,19.30
2022-08-16T05:05:55.799Z,19.40
2022-08-16T05:08:31.475Z,19.60
2022-08-16T05:11:05.783Z,19.60
2022-08-16T05:13:43.586Z,19.70
2022-08-16T05:16:25.160Z,19.80
2022-08-16T05:18:58.564Z,19.80
2022-08-16T05:21:37.967Z,19.80
2022-08-16T05:24:09.180Z,19.80
2022-08-16T05:26:43.164Z,19.90
2022-08-16T05:29:17.266Z,19.90
2022-08-16T05:31:52.964Z,19.90
2022-08-16T05:34:22.330Z,19.90
2022-08-16T05:36:51.336Z,19.90
2022-08-16T05:39:20.542Z,20.00
2022-08-16T05:41:48.995Z,20.10
2022-08-16T05:44:25.043Z,20.10
2022-08-16T05:47:01.022Z,20.20
2022-08-16T05:49:39.631Z,20.20
2022-08-16T05:52:17.178Z,20.30
2022-08-16T05:54:48.229Z,20.50
2022-08-16T05:57:35.603Z,20.60
2022-08-16T06:00:22.284Z,21.10
2022-08-16T06:02:50.641Z,22.00
2022-08-16T06:05:19.818Z,22.80
2022-08-16T06:07:58.248Z,23.20
2022-08-16T06:10:31.852Z,23.60
2022-08-16T06:13:01.307Z,24.00
2022-08-16T06:15:30.674Z,24.70
2022-08-16T06:17:59.314Z,25.20
2022-08-16T06:20:35.347Z,25.70
2022-08-16T06:23:16.728Z,25.70
2022-08-16T06:25:52.962Z,26.60
2022-08-16T06:28:34.795Z,27.10
2022-08-16T06:31:09.872Z,26.70
2022-08-16T06:33:42.358Z,26.90
2022-08-16T06:36:15.315Z,26.80
2022-08-16T06:38:52.314Z,27.30
2022-08-16T06:41:27.604Z,27.20
2022-08-16T06:43:56.638Z,27.60
2022-08-16T06:46:39.315Z,28.20
2022-08-16T06:49:12.488Z,28.60
2022-08-16T06:51:48.046Z,27.50
2022-08-16T06:54:17.535Z,26.00
2022-08-16T06:56:52.342Z,24.60
2022-08-16T06:59:25.696Z,25.00
2022-08-16T07:01:55.379Z,25.50
2022-08-16T07:04:32.736Z,26.40
2022-08-16T07:07:03.281Z,26.30
2022-08-16T07:09:31.539Z,26.70
2022-08-16T07:12:03.606Z,26.70
2022-08-16T07:14:35.153Z,27.40
2022-08-16T07:17:08.328Z,28.30
2022-08-16T07:20:03.599Z,28.60
2022-08-16T07:22:52.435Z,27.80
2022-08-16T07:25:16.942Z,28.70
2022-08-16T07:27:44.975Z,30.00
2022-08-16T07:30:39.320Z,29.70
2022-08-16T07:33:09.438Z,29.30
2022-08-16T07:35:44.428Z,29.50
2022-08-16T07:38:20.056Z,27.40
2022-08-16T07:41:09.616Z,27.50
2022-08-16T07:43:35.704Z,28.10
2022-08-16T07:46:39.693Z,29.00
2022-08-16T07:49:02.327Z,29.30
2022-08-16T07:51:36.959Z,29.80
2022-08-16T07:54:10.929Z,28.40
2022-08-16T07:56:41.976Z,28.00
2022-08-16T07:59:10.818Z,28.50
2022-08-16T08:01:39.474Z,28.80
2022-08-16T08:04:13.407Z,28.90
2022-08-16T08:06:42.116Z,29.40
2022-08-16T08:09:10.109Z,29.80
2022-08-16T08:11:38.089Z,30.20
2022-08-16T08:14:06.793Z,28.80
2022-08-16T08:16:35.715Z,27.80
2022-08-16T08:19:05.278Z,27.90
2022-08-16T08:21:58.768Z,28.50
2022-08-16T08:24:32.033Z,28.40
2022-08-16T08:27:04.567Z,29.20
2022-08-16T08:29:37.233Z,28.30
2022-08-16T08:32:57.727Z,28.30
2022-08-16T08:35:03.954Z,28.40
2022-08-16T08:37:54.410Z,26.70
2022-08-16T08:40:27.673Z,26.20
2022-08-16T08:43:12.140Z,26.90
2022-08-16T08:45:48.756Z,26.30
2022-08-16T08:48:32.866Z,26.00
2022-08-16T08:51:08.969Z,26.00
2022-08-16T08:53:38.496Z,26.90
2022-08-16T08:56:23.625Z,28.20
2022-08-16T08:58:59.105Z,29.40
2022-08-16T09:01:36.937Z,30.10
2022-08-16T09:04:14.742Z,30.70
2022-08-16T09:06:46.021Z,31.40
2022-08-16T09:09:16.657Z,31.60
2022-08-16T09:11:53.493Z,30.60
2022-08-16T09:14:29.585Z,31.20
2022-08-16T09:17:02.477Z,31.90
2022-08-16T09:19:40.714Z,31.60
2022-08-16T09:22:20.117Z,32.30
2022-08-16T09:24:53.370Z,31.20
2022-08-16T09:27:26.553Z,29.90
2022-08-16T09:29:59.770Z,30.70
2022-08-16T09:32:31.375Z,30.90
2022-08-16T09:35:02.446Z,29.70
2022-08-16T09:37:36.681Z,30.00
2022-08-16T09:40:32.260Z,29.90
2022-08-16T09:42:59.057Z,30.20
2022-08-16T09:45:29.087Z,28.80
2022-08-16T09:47:58.545Z,27.90
2022-08-16T09:50:37.055Z,28.40
2022-08-16T09:53:19.752Z,29.00
2022-08-16T09:55:56.862Z,29.30
2022-08-16T09:58:39.054Z,29.50
2022-08-16T10:01:11.382Z,29.70
2022-08-16T10:04:02.359Z,29.20
2022-08-16T10:06:33.445Z,29.50
2022-08-16T10:09:11.207Z,29.90
2022-08-16T10:12:11.052Z,29.70
2022-08-16T10:14:46.740Z,29.80
2022-08-16T10:17:14.865Z,28.90
2022-08-16T10:19:43.310Z,28.90
2022-08-16T10:22:12.960Z,28.60
2022-08-16T10:24:55.826Z,28.90
2022-08-16T10:27:29.834Z,28.80
2022-08-16T10:30:25.676Z,29.00
2022-08-16T10:32:56.318Z,28.90
2022-08-16T10:35:32.860Z,28.30
2022-08-16T10:38:00.956Z,27.90
2022-08-16T10:40:30.637Z,28.30
2022-08-16T10:43:02.330Z,28.50
2022-08-16T10:45:37.138Z,28.60
2022-08-16T10:48:28.017Z,28.70
2022-08-16T10:50:59.204Z,28.90
2022-08-16T10:53:32.921Z,29.10
2022-08-16T10:56:52.071Z,29.20
2022-08-16T10:59:32.617Z,29.10
2022-08-16T11:02:21.775Z,29.60
2022-08-16T11:10:20.419Z,29.30
2022-08-16T11:12:48.777Z,29.30
2022-08-16T11:15:21.004Z,29.30
2022-08-16T11:19:03.144Z,29.50
2022-08-16T11:20:49.329Z,28.90
2022-08-16T11:23:18.365Z,28.90
2022-08-16T11:26:20.548Z,29.20
2022-08-16T11:29:12.320Z,29.30
2022-08-16T11:31:25.479Z,29.40
2022-08-16T11:33:53.878Z,29.30
2022-08-16T11:36:27.353Z,29.10
2022-08-16T11:39:00.515Z,28.80
2022-08-16T11:41:29.380Z,29.00
2022-08-16T11:43:58.548Z,28.80
2022-08-16T11:46:43.627Z,28.80
2022-08-16T11:49:15.611Z,29.10
2022-08-16T11:51:45.470Z,29.30
2022-08-16T11:54:21.205Z,29.60
2022-08-16T11:56:56.995Z,29.80
2022-08-16T11:59:30.138Z,30.00
2022-08-16T12:02:11.581Z,29.90
2022-08-16T12:04:51.840Z,30.20
2022-08-16T12:07:21.143Z,29.90
2022-08-16T12:09:54.140Z,30.10
2022-08-16T12:12:23.860Z,30.20
2022-08-16T12:15:00.318Z,30.10
2022-08-16T12:17:32.482Z,30.20
2022-08-16T12:20:07.531Z,29.60
2022-08-16T12:22:37.149Z,29.90
2022-08-16T12:25:15.796Z,30.40
2022-08-16T12:27:47.202Z,30.00
2022-08-16T12:30:33.697Z,29.80
2022-08-16T12:33:12.355Z,30.20
2022-08-16T12:35:41.992Z,30.60
2022-08-16T12:38:41.539Z,30.20
2022-08-16T12:40:58.761Z,30.00
2022-08-16T12:43:26.981Z,29.10
2022-08-16T12:45:59.975Z,29.50
2022-08-16T12:48:52.746Z,29.70
2022-08-16T12:51:30.599Z,29.80
2022-08-16T12:54:07.675Z,29.90
2022-08-16T12:56:39.547Z,30.10
2022-08-16T12:59:16.809Z,30.50
2022-08-16T13:01:50.600Z,30.40
2022-08-16T13:04:24.575Z,30.50
2022-08-16T13:06:53.305Z,30.70
2022-08-16T13:09:26.049Z,30.10
2022-08-16T13:12:16.254Z,30.30
2022-08-16T13:14:45.959Z,30.20
2022-08-16T13:17:26.393Z,29.80
2022-08-16T13:20:13.758Z,29.40
2022-08-16T13:23:02.057Z,29.10
2022-08-16T13:25:36.528Z,29.00
2022-08-16T13:28:06.356Z,29.20
2022-08-16T13:30:44.284Z,29.10
2022-08-16T13:33:27.693Z,29.00
2022-08-16T13:36:01.338Z,29.00
2022-08-16T13:38:36.507Z,28.90
2022-08-16T13:41:11.922Z,28.50
2022-08-16T13:43:42.006Z,28.60
2022-08-16T13:46:09.835Z,28.50
2022-08-16T13:48:44.012Z,28.70
2022-08-16T13:51:20.353Z,28.50
2022-08-16T13:53:59.703Z,28.50
2022-08-16T13:56:37.544Z,28.20
2022-08-16T13:59:20.164Z,28.30
2022-08-16T14:01:59.803Z,28.10
2022-08-16T14:04:38.155Z,28.20
2022-08-16T14:07:19.707Z,28.40
2022-08-16T14:09:47.996Z,28.50
2022-08-16T14:12:31.551Z,28.50
2022-08-16T14:15:01.759Z,28.80
2022-08-16T14:17:31.248Z,29.30
2022-08-16T14:20:19.162Z,29.50
2022-08-16T14:22:52.559Z,29.80
2022-08-16T14:25:25.678Z,29.70
2022-08-16T14:27:55.103Z,29.70
2022-08-16T14:30:25.203Z,30.20
2022-08-16T14:32:54.294Z,30.50
2022-08-16T14:35:48.455Z,30.30
2022-08-16T14:38:23.943Z,30.20
2022-08-16T14:40:55.378Z,30.00
2022-08-16T14:43:29.901Z,29.50
2022-08-16T14:45:59.789Z,29.10
2022-08-16T14:48:27.351Z,28.90
2022-08-16T14:50:56.133Z,28.80
2022-08-16T14:53:26.616Z,28.70
2022-08-16T14:55:55.456Z,29.00
2022-08-16T14:58:34.458Z,29.00
2022-08-16T15:01:09.838Z,28.80
2022-08-16T15:03:44.844Z,28.80
2022-08-16T15:06:14.263Z,28.80
2022-08-16T15:08:42.343Z,28.90
2022-08-16T15:11:12.961Z,29.00
2022-08-16T15:13:41.417Z,29.10
2022-08-16T15:16:09.267Z,29.30
2022-08-16T15:18:36.805Z,29.30
2022-08-16T15:21:08.326Z,29.50
2022-08-16T15:23:36.808Z,29.10
2022-08-16T15:26:08.283Z,28.70
2022-08-16T15:28:38.096Z,28.80
2022-08-16T15:31:13.132Z,28.80
2022-08-16T15:33:56.422Z,29.10
2022-08-16T15:36:26.617Z,28.80
2022-08-16T15:39:05.867Z,28.70
2022-08-16T15:41:46.945Z,28.80
2022-08-16T15:44:23.765Z,29.00
2022-08-16T15:46:59.961Z,29.20
2022-08-16T15:49:38.076Z,29.50
2022-08-16T15:52:30.054Z,29.90
2022-08-16T15:55:23.565Z,29.70
2022-08-16T15:57:56.666Z,29.40
2022-08-16T16:00:26.538Z,29.20
2022-08-16T16:03:16.418Z,29.00
2022-08-16T16:05:51.013Z,28.70
2022-08-16T16:08:25.395Z,28.60
2022-08-16T16:11:00.434Z,28.70
2022-08-16T16:13:32.553Z,28.70
2022-08-16T16:16:03.923Z,28.60
2022-08-16T16:18:40.912Z,28.50
2022-08-16T16:21:20.501Z,28.60
2022-08-16T16:23:54.727Z,28.50
2022-08-16T16:26:26.816Z,28.70
2022-08-16T16:29:08.739Z,28.80
2022-08-16T16:31:59.537Z,28.60
2022-08-16T16:34:32.383Z,28.50
2022-08-16T16:37:04.124Z,28.30
2022-08-16T16:39:32.681Z,28.10
2022-08-16T16:42:00.502Z,28.10
2022-08-16T16:44:33.676Z,28.00
2022-08-16T16:47:04.149Z,27.90
2022-08-16T16:49:33.937Z,27.90
2022-08-16T16:52:06.587Z,27.90
2022-08-16T16:54:35.917Z,28.00
2022-08-16T16:57:04.346Z,28.10
2022-08-16T16:59:31.780Z,27.90
2022-08-16T17:02:41.558Z,28.00
2022-08-16T17:04:49.446Z,28.00
2022-08-16T17:07:23.894Z,28.10
2022-08-16T17:09:53.759Z,28.10
2022-08-16T17:12:25.115Z,28.10
2022-08-16T17:15:14.939Z,28.20
2022-08-16T17:18:00.305Z,28.40
2022-08-16T17:20:30.009Z,28.40
2022-08-16T17:22:58.451Z,28.30
2022-08-16T17:25:36.387Z,28.30
2022-08-16T17:28:58.223Z,28.30
2022-08-16T17:30:56.435Z,28.30
2022-08-16T17:33:25.508Z,28.20
2022-08-16T17:35:55.165Z,28.20
2022-08-16T17:39:28.517Z,28.10
2022-08-16T17:41:18.243Z,27.90
2022-08-16T17:43:45.950Z,28.00
2022-08-16T17:46:50.553Z,27.90
2022-08-16T17:49:05.495Z,27.80
2022-08-16T17:51:34.364Z,27.60
2022-08-16T17:54:03.686Z,27.60
2022-08-16T17:56:32.008Z,27.50
2022-08-16T17:58:59.827Z,27.40
2022-08-16T18:01:29.418Z,27.30
2022-08-16T18:04:06.742Z,27.30
2022-08-16T18:06:39.715Z,27.30
2022-08-16T18:09:10.374Z,27.20
2022-08-16T18:11:41.257Z,27.10
2022-08-16T18:14:13.308Z,27.00
2022-08-16T18:16:41.542Z,26.90
2022-08-16T18:19:11.177Z,26.80
2022-08-16T18:21:57.174Z,26.70
2022-08-16T18:24:29.330Z,26.50
2022-08-16T18:26:57.113Z,26.40
2022-08-16T18:29:48.575Z,26.30
2022-08-16T18:32:24.288Z,26.30
2022-08-16T18:34:54.837Z,26.20
2022-08-16T18:37:24.583Z,26.00
2022-08-16T18:39:52.259Z,26.00
2022-08-16T18:42:21.032Z,25.90
2022-08-16T18:44:49.154Z,25.70
2022-08-16T18:47:16.684Z,25.70
2022-08-16T18:49:44.483Z,25.60
2022-08-16T18:52:25.756Z,25.50
2022-08-16T18:55:02.032Z,25.40
2022-08-16T18:57:41.740Z,25.40
2022-08-16T19:00:13.694Z,25.40
2022-08-16T19:02:58.003Z,25.30
2022-08-16T19:05:31.110Z,25.30
2022-08-16T19:07:59.258Z,25.20
2022-08-16T19:10:26.858Z,25.10
2022-08-16T19:12:54.462Z,25.00
2022-08-16T19:15:28.720Z,24.90
2022-08-16T19:17:56.956Z,24.80
2022-08-16T19:20:28.314Z,24.70
2022-08-16T19:23:05.587Z,24.60
2022-08-16T19:25:49.109Z,24.50
2022-08-16T19:28:50.972Z,24.40
2022-08-16T19:31:33.939Z,24.30
2022-08-16T19:34:05.225Z,24.10
2022-08-16T19:36:38.570Z,24.10
2022-08-16T19:39:15.352Z,24.10
2022-08-16T19:41:53.784Z,24.10
2022-08-16T19:44:23.524Z,24.10
2022-08-16T19:46:51.684Z,24.20
2022-08-16T19:49:19.469Z,24.10
2022-08-16T19:51:48.482Z,24.00
2022-08-16T19:54:17.626Z,23.90
2022-08-16T19:56:45.226Z,23.80
2022-08-16T19:59:20.041Z,23.70
2022-08-16T20:01:52.169Z,23.70
2022-08-16T20:04:22.319Z,23.60
2022-08-16T20:06:53.246Z,23.60
2022-08-16T20:09:24.061Z,23.50
2022-08-16T20:11:54.362Z,23.40
2022-08-16T20:14:26.324Z,23.40
2022-08-16T20:17:00.745Z,23.30
2022-08-16T20:19:37.944Z,23.30
2022-08-16T20:22:53.103Z,23.20
2022-08-16T20:25:41.668Z,23.20
2022-08-16T20:28:33.401Z,23.20
2022-08-16T20:31:04.323Z,23.10
2022-08-16T20:33:32.236Z,23.00
2022-08-16T20:35:59.786Z,22.90
2022-08-16T20:38:27.384Z,22.80
2022-08-16T20:41:00.467Z,22.80
2022-08-16T20:43:28.279Z,22.70
2022-08-16T20:45:55.823Z,22.50
2022-08-16T20:48:23.299Z,22.50
2022-08-16T20:50:50.836Z,22.50
2022-08-16T20:53:18.601Z,22.50
2022-08-16T20:55:46.141Z,22.40
2022-08-16T20:58:14.078Z,22.30
2022-08-16T21:00:42.134Z,22.20
2022-08-16T21:03:13.571Z,22.20
2022-08-16T21:05:42.861Z,22.20
2022-08-16T21:08:28.754Z,22.10
2022-08-16T21:11:03.863Z,22.10
2022-08-16T21:13:33.926Z,22.10
2022-08-16T21:16:02.972Z,22.10
2022-08-16T21:18:30.587Z,22.10
2022-08-16T21:20:58.198Z,22.10
2022-08-16T21:23:26.240Z,22.10
2022-08-16T21:25:58.955Z,22.20
2022-08-16T21:28:41.306Z,22.30
2022-08-16T21:31:17.621Z,22.30
2022-08-16T21:33:54.174Z,22.40
2022-08-16T21:36:35.699Z,22.30
2022-08-16T21:39:06.478Z,22.40
2022-08-16T21:41:36.231Z,22.40
2022-08-16T21:44:05.144Z,22.50
2022-08-16T21:46:34.009Z,22.60
2022-08-16T21:49:01.656Z,22.70
2022-08-16T21:51:29.113Z,22.70
2022-08-16T21:53:56.972Z,22.80
2022-08-16T21:56:24.541Z,22.90
2022-08-16T21:58:52.459Z,23.20
2022-08-16T22:01:23.592Z,23.30
2022-08-16T22:04:09.609Z,23.50
2022-08-16T22:06:43.404Z,23.50
2022-08-16T22:09:15.632Z,23.60
2022-08-16T22:11:44.928Z,23.60
2022-08-16T22:14:12.969Z,23.60
2022-08-16T22:16:44.123Z,23.70
2022-08-16T22:19:13.292Z,23.80
2022-08-16T22:21:41.275Z,23.90
2022-08-16T22:24:09.336Z,23.90
2022-08-16T22:26:42.807Z,23.90
2022-08-16T22:29:15.108Z,23.80
2022-08-16T22:31:44.916Z,23.80
2022-08-16T22:34:14.211Z,23.70
2022-08-16T22:36:42.123Z,23.60
2022-08-16T22:39:14.930Z,23.60
2022-08-16T22:41:45.803Z,23.50
2022-08-16T22:44:13.813Z,23.40
2022-08-16T22:46:41.599Z,23.40
2022-08-16T22:49:11.690Z,23.30
2022-08-16T22:51:40.464Z,23.20
2022-08-16T22:54:45.121Z,23.20
2022-08-16T22:56:57.769Z,23.20
2022-08-16T22:59:25.729Z,23.20
2022-08-16T23:01:53.650Z,23.20
2022-08-16T23:04:24.042Z,23.20
2022-08-16T23:06:52.839Z,23.20
2022-08-16T23:09:21.066Z,23.30
2022-08-16T23:11:48.795Z,23.20
2022-08-16T23:14:17.537Z,23.20
2022-08-16T23:16:47.242Z,23.20
2022-08-16T23:19:17.163Z,23.10
2022-08-16T23:21:48.306Z,23.10
2022-08-16T23:24:20.607Z,23.10
2022-08-16T23:26:49.350Z,23.10
2022-08-16T23:29:25.577Z,23.00
2022-08-16T23:32:08.549Z,22.90
2022-08-16T23:34:36.112Z,22.90
2022-08-16T23:37:03.759Z,22.80
2022-08-16T23:39:31.482Z,22.80
2022-08-16T23:42:00.509Z,22.70
2022-08-16T23:44:44.148Z,22.50
2022-08-16T23:47:17.300Z,22.40
2022-08-16T23:50:01.223Z,22.30
2022-08-16T23:52:42.235Z,22.40
2022-08-16T23:55:22.041Z,22.30
2022-08-16T23:57:49.916Z,22.20
